Terminal Aerodrome Forecast
Issued by NWS

Home | Current Version | Previous Version | Text Only | Print | Product List | Glossary On
Versions: 1 2 3 4 5 6 7 8 9 10 11 12 13 14 15 16 17 18 19 20 21 22 23 24 25 26 27 28 29
000
FTUS46 KMTR 210059 AAA
TAFSFO
TAF AMD
KSFO 210059Z 2101/2206 27020G30KT 1 1/2SM +RA SQ SCT028 BKN040
      OVC050
     FM210200 25020G28KT P6SM -SHRA BKN045 BKN060
     FM210900 25017G25KT P6SM VCSH BKN050 OVC100
     FM211400 25014KT P6SM VCSH BKN050 OVC100
     FM220000 17011KT P6SM -SHRA BKN050 OVC100
     FM220300 11011KT P6SM -RA BKN050 OVC100=

USA.gov is the U.S. government's official web portal to all federal, state and local government web resources and services.